createdAt,value
2023-04-19T00:00:58.654Z,0.00
2023-04-19T00:01:59.621Z,0.00
2023-04-19T00:03:00.173Z,0.00
2023-04-19T00:04:00.871Z,0.00
2023-04-19T00:05:01.454Z,0.00
2023-04-19T00:06:01.858Z,0.00
2023-04-19T00:07:02.728Z,0.00
2023-04-19T00:08:03.613Z,0.00
2023-04-19T00:09:04.494Z,0.00
2023-04-19T00:10:05.392Z,0.00
2023-04-19T00:11:06.261Z,0.00
2023-04-19T00:12:07.174Z,0.00
2023-04-19T00:13:08.046Z,0.00
2023-04-19T00:14:08.930Z,0.00
2023-04-19T00:15:09.817Z,0.00
2023-04-19T00:16:10.737Z,0.00
2023-04-19T00:17:11.721Z,0.00
2023-04-19T00:18:12.114Z,0.00
2023-04-19T00:19:12.986Z,0.00
2023-04-19T00:20:13.866Z,0.00
2023-04-19T00:21:14.742Z,0.00
2023-04-19T00:22:15.666Z,0.00
2023-04-19T00:23:16.520Z,0.00
2023-04-19T00:24:17.403Z,0.00
2023-04-19T00:25:18.309Z,0.00
2023-04-19T00:26:19.168Z,0.00
2023-04-19T00:27:20.216Z,0.00
2023-04-19T00:28:20.654Z,0.00
2023-04-19T00:29:21.501Z,0.00
2023-04-19T00:30:22.376Z,0.00
2023-04-19T00:31:23.330Z,0.00
2023-04-19T00:32:24.236Z,0.00
2023-04-19T00:33:25.107Z,0.00
2023-04-19T00:34:25.963Z,0.00
2023-04-19T00:35:26.856Z,0.00
2023-04-19T00:36:27.737Z,0.00
2023-04-19T00:37:28.621Z,0.00
2023-04-19T00:38:29.509Z,0.00
2023-04-19T00:39:30.381Z,0.00
2023-04-19T00:40:31.283Z,0.00
2023-04-19T00:41:32.196Z,0.00
2023-04-19T00:42:33.054Z,0.00
2023-04-19T00:43:33.927Z,0.00
2023-04-19T00:44:34.835Z,0.00
2023-04-19T00:45:35.690Z,0.00
2023-04-19T00:46:36.758Z,0.00
2023-04-19T00:47:37.208Z,0.00
2023-04-19T00:48:38.047Z,0.00
2023-04-19T00:49:38.954Z,0.00
2023-04-19T00:50:39.827Z,0.00
2023-04-19T00:51:40.738Z,0.00
2023-04-19T00:52:41.609Z,0.00
2023-04-19T00:53:42.480Z,0.00
2023-04-19T00:54:43.371Z,0.00
2023-04-19T00:55:44.270Z,0.00
2023-04-19T00:56:45.123Z,0.00
2023-04-19T00:57:46.024Z,0.00
2023-04-19T00:58:46.885Z,0.00
2023-04-19T00:59:47.792Z,0.00
2023-04-19T01:00:48.650Z,0.00
2023-04-19T01:01:49.584Z,0.00
2023-04-19T01:02:50.541Z,0.00
2023-04-19T01:03:51.050Z,0.00
2023-04-19T01:04:51.910Z,0.00
2023-04-19T01:05:52.817Z,0.00
2023-04-19T01:06:53.667Z,0.00
2023-04-19T01:07:54.575Z,0.00
2023-04-19T01:08:55.434Z,0.00
2023-04-19T01:09:56.317Z,0.00
2023-04-19T01:10:57.217Z,0.00
2023-04-19T01:11:58.136Z,0.00
2023-04-19T01:12:58.986Z,0.00
2023-04-19T01:13:59.890Z,0.00
2023-04-19T01:15:00.756Z,0.00
2023-04-19T01:16:01.665Z,0.00
2023-04-19T01:17:02.507Z,0.00
2023-04-19T01:18:03.479Z,0.00
2023-04-19T01:19:04.336Z,0.00
2023-04-19T01:20:05.205Z,0.00
2023-04-19T01:21:06.079Z,0.00
2023-04-19T01:22:06.986Z,0.00
2023-04-19T01:23:07.857Z,0.00
2023-04-19T01:24:08.746Z,0.00
2023-04-19T01:25:09.625Z,0.00
2023-04-19T01:26:10.594Z,0.00
2023-04-19T01:27:11.460Z,0.00
2023-04-19T01:28:12.353Z,0.00
2023-04-19T01:29:13.255Z,0.00
2023-04-19T01:30:14.154Z,0.00
2023-04-19T01:31:15.097Z,0.00
2023-04-19T01:32:15.955Z,0.00
2023-04-19T01:33:16.860Z,0.00
2023-04-19T01:34:17.729Z,0.00
2023-04-19T01:35:18.604Z,0.00
2023-04-19T01:36:19.492Z,0.00
2023-04-19T01:37:20.390Z,0.00
2023-04-19T01:38:21.287Z,0.00
2023-04-19T01:39:22.143Z,0.00
2023-04-19T01:40:23.024Z,0.00
2023-04-19T01:41:23.949Z,0.00
2023-04-19T01:42:24.783Z,0.00
2023-04-19T01:43:25.668Z,0.00
2023-04-19T01:44:26.555Z,0.00
2023-04-19T01:45:27.426Z,0.00
2023-04-19T01:46:28.373Z,0.00
2023-04-19T01:47:29.210Z,0.00
2023-04-19T01:48:30.076Z,0.00
2023-04-19T01:49:30.954Z,0.00
2023-04-19T01:50:31.880Z,0.00
2023-04-19T01:51:32.722Z,0.00
2023-04-19T01:52:33.630Z,0.00
2023-04-19T01:53:34.507Z,0.00
2023-04-19T01:54:35.390Z,0.00
2023-04-19T01:55:36.277Z,0.00
2023-04-19T01:56:37.178Z,0.00
2023-04-19T01:57:38.047Z,0.00
2023-04-19T01:58:38.932Z,0.00
2023-04-19T01:59:39.803Z,0.00
2023-04-19T02:00:40.726Z,0.00
2023-04-19T02:01:41.583Z,0.00
2023-04-19T02:02:42.588Z,0.00
2023-04-19T02:03:43.463Z,0.00
2023-04-19T02:04:43.939Z,0.00
2023-04-19T02:05:44.799Z,0.00
2023-04-19T02:06:45.680Z,0.00
2023-04-19T02:07:46.580Z,0.00
2023-04-19T02:08:47.453Z,0.00
2023-04-19T02:09:48.353Z,0.00
2023-04-19T02:10:49.232Z,0.00
2023-04-19T02:11:50.141Z,0.00
2023-04-19T02:12:50.995Z,0.00
2023-04-19T02:13:51.891Z,0.00
2023-04-19T02:14:52.783Z,0.00
2023-04-19T02:15:53.651Z,0.00
2023-04-19T02:16:54.560Z,0.00
2023-04-19T02:17:55.487Z,0.00
2023-04-19T02:18:56.370Z,0.00
2023-04-19T02:19:57.257Z,0.00
2023-04-19T02:20:58.151Z,0.00
2023-04-19T02:21:59.023Z,0.00
2023-04-19T02:22:59.908Z,0.00
2023-04-19T02:24:00.791Z,0.00
2023-04-19T02:25:01.781Z,0.00
2023-04-19T02:26:02.211Z,0.00
2023-04-19T02:27:03.140Z,0.00
2023-04-19T02:28:03.996Z,0.00
2023-04-19T02:29:06.800Z,0.00
2023-04-19T02:30:05.406Z,0.00
2023-04-19T02:31:06.298Z,0.00
2023-04-19T02:32:07.201Z,0.00
2023-04-19T02:33:08.083Z,0.00
2023-04-19T02:34:09.015Z,0.00
2023-04-19T02:35:09.869Z,0.00
2023-04-19T02:36:10.753Z,0.00
2023-04-19T02:37:11.634Z,0.00
2023-04-19T02:38:12.532Z,0.00
2023-04-19T02:39:13.406Z,0.00
2023-04-19T02:40:14.296Z,0.00
2023-04-19T02:41:15.186Z,0.00
2023-04-19T02:42:16.088Z,0.00
2023-04-19T02:43:16.978Z,0.00
2023-04-19T02:44:18.016Z,0.00
2023-04-19T02:45:18.466Z,0.00
2023-04-19T02:46:19.383Z,0.00
2023-04-19T02:47:20.226Z,0.00
2023-04-19T02:48:21.114Z,0.00
2023-04-19T02:49:21.997Z,0.00
2023-04-19T02:50:22.878Z,0.00
2023-04-19T02:51:23.787Z,0.00
2023-04-19T02:52:24.650Z,0.00
2023-04-19T02:53:25.556Z,0.00
2023-04-19T02:54:26.422Z,0.00
2023-04-19T02:55:27.313Z,0.00
2023-04-19T02:56:28.190Z,0.00
2023-04-19T02:57:29.090Z,0.00
2023-04-19T02:58:29.961Z,0.00
2023-04-19T02:59:30.842Z,0.00
2023-04-19T03:00:31.717Z,0.00
2023-04-19T03:01:32.638Z,0.00
2023-04-19T03:02:33.726Z,0.00
2023-04-19T03:03:34.249Z,0.00
2023-04-19T03:04:35.216Z,0.00
2023-04-19T03:05:36.100Z,0.00
2023-04-19T03:06:36.944Z,0.00
2023-04-19T03:07:37.830Z,0.00
2023-04-19T03:08:38.717Z,0.00
2023-04-19T03:09:39.603Z,0.00
2023-04-19T03:10:40.467Z,0.00
2023-04-19T03:11:41.375Z,0.00
2023-04-19T03:12:42.261Z,0.00
2023-04-19T03:13:43.120Z,0.00
2023-04-19T03:14:44.005Z,0.00
2023-04-19T03:15:44.954Z,0.00
2023-04-19T03:16:45.833Z,0.00
2023-04-19T03:17:46.773Z,0.00
2023-04-19T03:18:49.354Z,0.00
2023-04-19T03:19:48.466Z,0.00
2023-04-19T03:20:49.345Z,0.00
2023-04-19T03:21:50.249Z,0.00
2023-04-19T03:22:51.103Z,0.00
2023-04-19T03:23:52.005Z,0.00
2023-04-19T03:24:52.880Z,0.00
2023-04-19T03:25:53.756Z,0.00
2023-04-19T03:26:54.649Z,0.00
2023-04-19T03:27:55.543Z,0.00
2023-04-19T03:28:56.442Z,0.00
2023-04-19T03:29:57.337Z,0.00
2023-04-19T03:30:58.194Z,0.00
2023-04-19T03:31:59.065Z,0.00
2023-04-19T03:32:59.979Z,0.00
2023-04-19T03:34:00.869Z,0.00
2023-04-19T03:35:01.754Z,0.00
2023-04-19T03:36:02.642Z,0.00
2023-04-19T03:37:03.513Z,0.00
2023-04-19T03:38:04.393Z,0.00
2023-04-19T03:39:05.281Z,0.00
2023-04-19T03:40:06.159Z,0.00
2023-04-19T03:41:07.038Z,0.00
2023-04-19T03:42:07.922Z,0.00
2023-04-19T03:43:08.896Z,0.00
2023-04-19T03:44:09.741Z,0.00
2023-04-19T03:45:10.606Z,0.00
2023-04-19T03:46:11.526Z,0.00
2023-04-19T03:47:12.429Z,0.00
2023-04-19T03:48:13.308Z,0.00
2023-04-19T03:49:14.197Z,0.00
2023-04-19T03:50:15.073Z,0.00
2023-04-19T03:51:15.972Z,0.00
2023-04-19T03:52:16.854Z,0.00
2023-04-19T03:53:17.721Z,0.00
2023-04-19T03:54:18.614Z,0.00
2023-04-19T03:55:19.507Z,0.00
2023-04-19T03:56:20.375Z,0.00
2023-04-19T03:57:21.253Z,0.00
2023-04-19T03:58:22.157Z,0.00
2023-04-19T03:59:23.030Z,0.00
2023-04-19T04:00:23.943Z,0.00
2023-04-19T04:01:24.799Z,0.00
2023-04-19T04:02:25.753Z,0.00
2023-04-19T04:03:26.540Z,1.00
2023-04-19T04:04:27.323Z,0.00
2023-04-19T04:05:27.847Z,0.00
2023-04-19T04:06:28.760Z,0.00
2023-04-19T04:07:29.621Z,0.00
2023-04-19T04:08:30.462Z,1.00
2023-04-19T04:09:31.293Z,1.00
2023-04-19T04:10:32.181Z,0.00
2023-04-19T04:11:33.074Z,0.00
2023-04-19T04:12:33.946Z,0.00
2023-04-19T04:13:34.893Z,0.00
2023-04-19T04:14:35.703Z,2.00
2023-04-19T04:15:36.511Z,1.00
2023-04-19T04:16:37.461Z,0.00
2023-04-19T04:17:38.312Z,1.00
2023-04-19T04:18:39.105Z,1.00
2023-04-19T04:19:39.989Z,0.00
2023-04-19T04:20:40.887Z,0.00
2023-04-19T04:21:41.713Z,2.00
2023-04-19T04:22:42.554Z,2.00
2023-04-19T04:23:43.370Z,1.00
2023-04-19T04:24:44.203Z,1.00
2023-04-19T04:25:45.037Z,2.00
2023-04-19T04:26:45.860Z,5.00
2023-04-19T04:27:46.676Z,3.00
2023-04-19T04:28:47.656Z,6.00
2023-04-19T04:29:48.462Z,4.00
2023-04-19T04:30:49.267Z,5.00
2023-04-19T04:31:50.196Z,5.00
2023-04-19T04:32:51.155Z,2.00
2023-04-19T04:33:52.040Z,2.00
2023-04-19T04:34:52.907Z,2.00
2023-04-19T04:35:53.712Z,2.00
2023-04-19T04:36:54.534Z,3.00
2023-04-19T04:37:55.368Z,6.00
2023-04-19T04:38:56.193Z,5.00
2023-04-19T04:39:57.041Z,7.00
2023-04-19T04:40:57.857Z,8.00
2023-04-19T04:41:58.703Z,7.00
2023-04-19T04:42:59.518Z,8.00
2023-04-19T04:44:12.210Z,6.00
2023-04-19T04:45:02.164Z,10.00
2023-04-19T04:46:02.102Z,9.00
2023-04-19T04:47:02.929Z,10.00
2023-04-19T04:48:03.893Z,9.00
2023-04-19T04:49:04.689Z,8.00
2023-04-19T04:50:05.561Z,12.00
2023-04-19T04:51:06.342Z,15.00
2023-04-19T04:52:07.169Z,12.00
2023-04-19T04:53:07.990Z,13.00
2023-04-19T04:54:08.851Z,12.00
2023-04-19T04:55:09.677Z,12.00
2023-04-19T04:56:10.495Z,14.00
2023-04-19T04:57:11.316Z,14.00
2023-04-19T04:58:12.150Z,15.00
2023-04-19T04:59:13.074Z,15.00
2023-04-19T05:00:13.854Z,18.00
2023-04-19T05:01:14.687Z,17.00
2023-04-19T05:02:15.597Z,15.00
2023-04-19T05:03:16.322Z,15.00
2023-04-19T05:04:17.371Z,19.00
2023-04-19T05:05:17.943Z,18.00
2023-04-19T05:06:18.766Z,17.00
2023-04-19T05:07:19.647Z,17.00
2023-04-19T05:08:20.428Z,17.00
2023-04-19T05:09:21.272Z,19.00
2023-04-19T05:10:22.107Z,18.00
2023-04-19T05:11:22.917Z,19.00
2023-04-19T05:12:23.759Z,18.00
2023-04-19T05:13:24.586Z,20.00
2023-04-19T05:14:25.435Z,15.00
2023-04-19T05:15:26.254Z,18.00
2023-04-19T05:16:27.150Z,21.00
2023-04-19T05:17:27.953Z,25.00
2023-04-19T05:18:28.767Z,25.00
2023-04-19T05:19:29.606Z,23.00
2023-04-19T05:20:30.430Z,26.00
2023-04-19T05:21:31.270Z,28.00
2023-04-19T05:22:32.103Z,25.00
2023-04-19T05:23:32.916Z,24.00
2023-04-19T05:24:33.741Z,21.00
2023-04-19T05:25:34.576Z,24.00
2023-04-19T05:26:35.402Z,24.00
2023-04-19T05:27:36.312Z,27.00
2023-04-19T05:28:37.091Z,27.00
2023-04-19T05:29:37.939Z,27.00
2023-04-19T05:30:38.736Z,28.00
2023-04-19T05:31:39.601Z,25.00
2023-04-19T05:32:40.416Z,25.00
2023-04-19T05:33:41.219Z,21.00
2023-04-19T05:34:42.068Z,25.00
2023-04-19T05:35:42.882Z,27.00
2023-04-19T05:36:43.712Z,31.00
2023-04-19T05:37:44.564Z,33.00
2023-04-19T05:38:45.371Z,39.00
2023-04-19T05:39:46.218Z,35.00
2023-04-19T05:40:47.038Z,35.00
2023-04-19T05:41:47.903Z,35.00
2023-04-19T05:42:48.690Z,38.00
2023-04-19T05:43:49.526Z,40.00
2023-04-19T05:44:50.164Z,39.00
2023-04-19T05:45:51.018Z,40.00
2023-04-19T05:46:51.789Z,44.00
2023-04-19T05:47:52.705Z,48.00
2023-04-19T05:48:53.220Z,50.00
2023-04-19T05:49:54.051Z,55.00
2023-04-19T05:50:54.868Z,58.00
2023-04-19T05:51:55.739Z,60.00
2023-04-19T05:52:56.241Z,61.00
2023-04-19T05:53:57.525Z,62.00
2023-04-19T05:54:58.115Z,66.00
2023-04-19T05:55:58.899Z,64.00
2023-04-19T05:56:59.718Z,66.00
2023-04-19T05:58:00.549Z,71.00
2023-04-19T05:59:01.368Z,70.00
2023-04-19T06:00:02.793Z,69.00
2023-04-19T06:01:02.878Z,70.00
2023-04-19T06:02:03.856Z,74.00
2023-04-19T06:03:04.422Z,76.00
2023-04-19T06:04:04.953Z,80.00
2023-04-19T06:05:09.991Z,80.00
2023-04-19T06:06:07.162Z,83.00
2023-04-19T06:07:13.505Z,80.00
2023-04-19T06:08:08.750Z,83.00
2023-04-19T06:09:08.570Z,85.00
2023-04-19T06:10:09.414Z,87.00
2023-04-19T06:11:20.115Z,90.00
2023-04-19T06:12:11.939Z,92.00
2023-04-19T06:13:11.772Z,93.00
2023-04-19T06:14:12.586Z,92.00
2023-04-19T06:15:13.518Z,90.00
2023-04-19T06:16:14.449Z,92.00
2023-04-19T06:17:15.273Z,97.00
2023-04-19T06:18:19.317Z,98.00
2023-04-19T06:19:16.674Z,102.00
2023-04-19T06:20:17.487Z,103.00
2023-04-19T06:21:18.311Z,102.00
2023-04-19T06:22:19.137Z,105.00
2023-04-19T06:23:19.977Z,115.00
2023-04-19T06:24:20.782Z,113.00
2023-04-19T06:25:21.620Z,116.00
2023-04-19T06:26:22.438Z,121.00
2023-04-19T06:27:23.262Z,119.00
2023-04-19T06:28:24.085Z,123.00
2023-04-19T06:29:24.912Z,128.00
2023-04-19T06:30:25.781Z,131.00
2023-04-19T06:31:26.649Z,131.00
2023-04-19T06:32:27.496Z,137.00
2023-04-19T06:33:28.318Z,141.00
2023-04-19T06:34:29.127Z,140.00
2023-04-19T06:35:30.041Z,144.00
2023-04-19T06:36:30.858Z,147.00
2023-04-19T06:37:31.683Z,149.00
2023-04-19T06:38:32.567Z,155.00
2023-04-19T06:39:33.355Z,152.00
2023-04-19T06:40:34.186Z,145.00
2023-04-19T06:41:35.034Z,142.00
2023-04-19T06:42:35.836Z,154.00
2023-04-19T06:43:36.662Z,155.00
2023-04-19T06:44:37.495Z,160.00
2023-04-19T06:45:38.367Z,162.00
2023-04-19T06:46:39.151Z,164.00
2023-04-19T06:47:40.023Z,158.00
2023-04-19T06:48:40.853Z,155.00
2023-04-19T06:49:41.728Z,144.00
2023-04-19T06:50:42.559Z,144.00
2023-04-19T06:51:43.391Z,141.00
2023-04-19T06:52:44.201Z,146.00
2023-04-19T06:53:45.032Z,153.00
2023-04-19T06:54:45.855Z,152.00
2023-04-19T06:55:46.707Z,156.00
2023-04-19T06:56:47.530Z,158.00
2023-04-19T06:57:48.351Z,162.00
2023-04-19T06:58:49.176Z,164.00
2023-04-19T06:59:50.002Z,168.00
2023-04-19T07:00:51.065Z,166.00
2023-04-19T07:01:51.617Z,167.00
2023-04-19T07:02:52.213Z,169.00
2023-04-19T07:03:53.522Z,169.00
2023-04-19T07:04:53.472Z,167.00
2023-04-19T07:05:54.303Z,171.00
2023-04-19T07:06:55.128Z,173.00
2023-04-19T07:07:55.947Z,171.00
2023-04-19T07:08:56.790Z,168.00
2023-04-19T07:09:57.616Z,169.00
2023-04-19T07:10:58.466Z,168.00
2023-04-19T07:11:59.304Z,169.00
2023-04-19T07:13:00.128Z,167.00
2023-04-19T07:14:00.998Z,168.00
2023-04-19T07:15:01.772Z,164.00
2023-04-19T07:16:03.162Z,165.00
2023-04-19T07:17:03.521Z,162.00
2023-04-19T07:18:04.372Z,160.00
2023-04-19T07:19:05.180Z,156.00
2023-04-19T07:20:06.058Z,149.00
2023-04-19T07:21:06.874Z,154.00
2023-04-19T07:22:07.706Z,158.00
2023-04-19T07:23:08.536Z,163.00
2023-04-19T07:24:09.354Z,163.00
2023-04-19T07:25:10.173Z,163.00
2023-04-19T07:26:11.079Z,167.00
2023-04-19T07:27:11.857Z,172.00
2023-04-19T07:28:12.688Z,168.00
2023-04-19T07:29:13.519Z,166.00
2023-04-19T07:30:14.329Z,165.00
2023-04-19T07:31:15.230Z,165.00
2023-04-19T07:32:16.123Z,164.00
2023-04-19T07:33:17.013Z,169.00
2023-04-19T07:34:18.114Z,174.00
2023-04-19T07:35:18.614Z,183.00
2023-04-19T07:36:19.447Z,189.00
2023-04-19T07:37:20.292Z,197.00
2023-04-19T07:38:21.187Z,197.00
2023-04-19T07:39:21.957Z,201.00
2023-04-19T07:40:22.780Z,202.00
2023-04-19T07:41:23.639Z,199.00
2023-04-19T07:42:24.446Z,198.00
2023-04-19T07:43:25.281Z,199.00
2023-04-19T07:44:26.113Z,203.00
2023-04-19T07:45:26.941Z,207.00
2023-04-19T07:46:27.902Z,207.00
2023-04-19T07:47:28.753Z,206.00
2023-04-19T07:48:29.548Z,205.00
2023-04-19T07:49:30.391Z,209.00
2023-04-19T07:50:31.204Z,202.00
2023-04-19T07:51:32.064Z,202.00
2023-04-19T07:52:32.889Z,205.00
2023-04-19T07:53:33.713Z,203.00
2023-04-19T07:54:34.546Z,205.00
2023-04-19T07:55:35.369Z,204.00
2023-04-19T07:56:36.325Z,204.00
2023-04-19T07:57:37.098Z,207.00
2023-04-19T07:58:37.930Z,211.00
2023-04-19T07:59:38.821Z,210.00
2023-04-19T08:00:39.614Z,212.00
2023-04-19T08:01:40.686Z,217.00
2023-04-19T08:02:41.181Z,213.00
2023-04-19T08:03:41.845Z,213.00
2023-04-19T08:04:42.645Z,215.00
2023-04-19T08:05:43.321Z,217.00
2023-04-19T08:06:44.164Z,220.00
2023-04-19T08:07:44.998Z,218.00
2023-04-19T08:08:45.834Z,225.00
2023-04-19T08:09:46.692Z,220.00
2023-04-19T08:10:47.555Z,221.00
2023-04-19T08:11:48.352Z,224.00
2023-04-19T08:13:04.519Z,221.00
2023-04-19T08:14:00.726Z,219.00
2023-04-19T08:15:04.808Z,224.00
2023-04-19T08:16:27.141Z,222.00
2023-04-19T08:17:52.945Z,224.00
2023-04-19T08:18:53.759Z,225.00
2023-04-19T08:19:54.580Z,224.00
2023-04-19T08:20:55.431Z,222.00
2023-04-19T08:21:56.248Z,222.00
2023-04-19T08:22:59.085Z,222.00
2023-04-19T08:23:57.756Z,219.00
2023-04-19T08:24:58.592Z,216.00
2023-04-19T08:25:59.429Z,215.00
2023-04-19T08:27:00.358Z,229.00
2023-04-19T08:28:01.129Z,226.00
2023-04-19T08:29:01.953Z,229.00
2023-04-19T08:30:02.801Z,235.00
2023-04-19T08:31:03.661Z,236.00
2023-04-19T08:32:04.556Z,237.00
2023-04-19T08:33:05.384Z,240.00
2023-04-19T08:34:06.185Z,240.00
2023-04-19T08:35:07.011Z,242.00
2023-04-19T08:36:07.840Z,241.00
2023-04-19T08:37:08.680Z,241.00
2023-04-19T08:38:09.698Z,242.00
2023-04-19T08:39:29.262Z,243.00
2023-04-19T08:40:11.839Z,243.00
2023-04-19T08:41:11.673Z,242.00
2023-04-19T08:42:24.619Z,246.00
2023-04-19T08:43:14.228Z,243.00
2023-04-19T08:46:16.522Z,245.00
2023-04-19T08:47:27.039Z,245.00
2023-04-19T08:48:18.135Z,244.00
2023-04-19T08:49:18.143Z,247.00
2023-04-19T08:50:31.147Z,247.00
2023-04-19T08:51:20.329Z,242.00
2023-04-19T08:52:20.149Z,236.00
2023-04-19T08:53:25.797Z,224.00
2023-04-19T08:54:22.681Z,222.00
2023-04-19T08:55:22.524Z,221.00
2023-04-19T08:56:34.831Z,220.00
2023-04-19T08:57:25.059Z,220.00
2023-04-19T08:58:36.541Z,223.00
2023-04-19T08:59:26.590Z,227.00
2023-04-19T09:00:26.438Z,228.00
2023-04-19T09:01:35.373Z,236.00
2023-04-19T09:02:29.382Z,241.00
2023-04-19T09:03:29.098Z,238.00
2023-04-19T09:04:36.985Z,244.00
2023-04-19T09:05:31.479Z,252.00
2023-04-19T09:06:30.964Z,256.00
2023-04-19T09:07:31.798Z,262.00
2023-04-19T09:08:32.618Z,269.00
2023-04-19T09:09:39.039Z,265.00
2023-04-19T09:10:35.157Z,260.00
2023-04-19T09:11:34.992Z,263.00
2023-04-19T09:12:35.809Z,261.00
2023-04-19T09:13:36.660Z,258.00
2023-04-19T09:14:38.243Z,247.00
2023-04-19T09:15:38.252Z,243.00
2023-04-19T09:16:39.176Z,236.00
2023-04-19T09:17:40.138Z,235.00
2023-04-19T09:18:53.376Z,237.00
2023-04-19T09:19:42.651Z,236.00
2023-04-19T09:20:42.472Z,236.00
2023-04-19T09:21:43.301Z,230.00
2023-04-19T09:22:44.129Z,218.00
2023-04-19T09:23:44.957Z,211.00
2023-04-19T09:25:19.062Z,203.00
2023-04-19T09:26:48.212Z,187.00
2023-04-19T09:27:48.039Z,176.00
2023-04-19T09:28:48.856Z,166.00
2023-04-19T09:29:49.682Z,166.00
2023-04-19T09:30:58.661Z,164.00
2023-04-19T09:31:52.547Z,157.00
2023-04-19T09:32:52.031Z,160.00
2023-04-19T09:33:52.398Z,159.00
2023-04-19T09:34:53.276Z,164.00
2023-04-19T09:35:54.092Z,162.00
2023-04-19T09:37:08.454Z,165.00
2023-04-19T09:38:04.842Z,159.00
2023-04-19T09:38:57.348Z,155.00
2023-04-19T09:39:57.199Z,159.00
2023-04-19T09:40:57.994Z,155.00
2023-04-19T09:41:58.841Z,155.00
2023-04-19T09:43:11.145Z,151.00
2023-04-19T09:44:15.581Z,149.00
2023-04-19T09:45:28.246Z,148.00
2023-04-19T09:46:02.829Z,147.00
2023-04-19T09:47:02.815Z,146.00
2023-04-19T09:48:03.804Z,155.00
2023-04-19T09:49:09.449Z,149.00
2023-04-19T09:50:18.851Z,148.00
2023-04-19T09:51:10.053Z,149.00
2023-04-19T09:52:07.057Z,154.00
2023-04-19T09:53:06.868Z,152.00
2023-04-19T09:54:07.698Z,148.00
2023-04-19T09:55:17.810Z,145.00
2023-04-19T09:56:10.241Z,150.00
2023-04-19T09:57:10.068Z,150.00
2023-04-19T09:58:10.899Z,153.00
2023-04-19T09:59:20.323Z,156.00
2023-04-19T10:00:13.424Z,161.00
2023-04-19T10:01:15.428Z,165.00
2023-04-19T10:02:14.009Z,173.00
2023-04-19T10:03:15.050Z,179.00
2023-04-19T10:04:26.260Z,181.00
2023-04-19T10:05:22.343Z,183.00
2023-04-19T10:07:29.182Z,183.00
2023-04-19T10:08:19.113Z,193.00
2023-04-19T10:09:18.928Z,210.00
2023-04-19T10:10:21.434Z,211.00
2023-04-19T10:11:20.345Z,214.00
2023-04-19T10:12:45.604Z,213.00
2023-04-19T10:13:25.710Z,215.00
2023-04-19T10:14:22.506Z,211.00
2023-04-19T10:15:23.322Z,212.00
2023-04-19T10:16:24.176Z,216.00
2023-04-19T10:17:25.072Z,220.00
2023-04-19T10:18:25.932Z,224.00
2023-04-19T10:19:26.722Z,223.00
2023-04-19T10:20:27.565Z,216.00
2023-04-19T10:21:28.387Z,215.00
2023-04-19T10:22:29.232Z,208.00
2023-04-19T10:23:30.070Z,207.00
2023-04-19T10:24:30.888Z,215.00
2023-04-19T10:25:31.717Z,226.00
2023-04-19T10:26:32.556Z,226.00
2023-04-19T10:27:33.386Z,230.00
2023-04-19T10:28:34.225Z,234.00
2023-04-19T10:29:35.039Z,242.00
2023-04-19T10:30:35.858Z,245.00
2023-04-19T10:31:36.709Z,248.00
2023-04-19T10:32:37.655Z,247.00
2023-04-19T10:33:38.577Z,243.00
2023-04-19T10:34:39.394Z,242.00
2023-04-19T10:35:40.175Z,245.00
2023-04-19T10:36:40.994Z,243.00
2023-04-19T10:37:41.829Z,246.00
2023-04-19T10:38:42.670Z,244.00
2023-04-19T10:39:43.487Z,242.00
2023-04-19T10:40:44.342Z,239.00
2023-04-19T10:41:45.169Z,240.00
2023-04-19T10:42:46.005Z,240.00
2023-04-19T10:43:46.829Z,243.00
2023-04-19T10:44:47.651Z,238.00
2023-04-19T10:45:48.653Z,231.00
2023-04-19T10:46:48.994Z,224.00
2023-04-19T10:47:49.855Z,225.00
2023-04-19T10:48:50.703Z,221.00
2023-04-19T10:49:51.486Z,225.00
2023-04-19T10:50:52.333Z,223.00
2023-04-19T10:51:53.160Z,223.00
2023-04-19T10:52:53.983Z,225.00
2023-04-19T10:53:54.808Z,220.00
2023-04-19T10:54:55.637Z,219.00
2023-04-19T10:55:56.452Z,220.00
2023-04-19T10:56:57.302Z,221.00
2023-04-19T10:57:58.110Z,221.00
2023-04-19T10:58:58.929Z,212.00
2023-04-19T10:59:59.767Z,203.00
2023-04-19T11:01:00.594Z,197.00
2023-04-19T11:02:01.569Z,191.00
2023-04-19T11:03:02.049Z,188.00
2023-04-19T11:04:02.697Z,184.00
2023-04-19T11:05:03.162Z,177.00
2023-04-19T11:06:03.988Z,172.00
2023-04-19T11:07:04.816Z,164.00
2023-04-19T11:08:05.646Z,160.00
2023-04-19T11:09:06.472Z,152.00
2023-04-19T11:10:07.301Z,148.00
2023-04-19T11:11:08.109Z,146.00
2023-04-19T11:12:08.939Z,147.00
2023-04-19T11:13:09.764Z,150.00
2023-04-19T11:14:10.588Z,153.00
2023-04-19T11:15:11.420Z,154.00
2023-04-19T11:16:12.262Z,156.00
2023-04-19T11:17:13.059Z,158.00
2023-04-19T11:18:13.914Z,160.00
2023-04-19T11:19:15.191Z,156.00
2023-04-19T11:20:15.658Z,152.00
2023-04-19T11:21:16.493Z,152.00
2023-04-19T11:22:17.316Z,153.00
2023-04-19T11:23:18.139Z,154.00
2023-04-19T11:24:19.058Z,157.00
2023-04-19T11:25:19.904Z,160.00
2023-04-19T11:26:20.716Z,157.00
2023-04-19T11:27:21.565Z,156.00
2023-04-19T11:28:22.372Z,155.00
2023-04-19T11:29:23.213Z,160.00
2023-04-19T11:30:24.028Z,161.00
2023-04-19T11:31:24.865Z,167.00
2023-04-19T11:32:25.883Z,167.00
2023-04-19T11:33:26.215Z,167.00
2023-04-19T11:34:27.055Z,161.00
2023-04-19T11:35:27.856Z,155.00
2023-04-19T11:36:28.680Z,150.00
2023-04-19T11:37:29.508Z,146.00
2023-04-19T11:38:30.347Z,144.00
2023-04-19T11:39:31.163Z,141.00
2023-04-19T11:40:31.978Z,139.00
2023-04-19T11:41:32.797Z,131.00
2023-04-19T11:42:33.658Z,129.00
2023-04-19T11:43:34.572Z,125.00
2023-04-19T11:44:35.408Z,127.00
2023-04-19T11:45:39.182Z,132.00
2023-04-19T11:46:37.043Z,134.00
2023-04-19T11:47:37.919Z,129.00
2023-04-19T11:48:38.709Z,129.00
2023-04-19T11:49:39.674Z,116.00
2023-04-19T11:50:40.429Z,104.00
2023-04-19T11:51:41.269Z,106.00
2023-04-19T11:52:42.093Z,102.00
2023-04-19T11:53:42.907Z,107.00
2023-04-19T11:54:43.749Z,108.00
2023-04-19T11:55:44.558Z,109.00
2023-04-19T11:56:45.398Z,109.00
2023-04-19T11:57:46.250Z,109.00
2023-04-19T11:58:47.093Z,109.00
2023-04-19T11:59:47.881Z,106.00
2023-04-19T12:00:48.704Z,109.00
2023-04-19T12:01:49.533Z,119.00
2023-04-19T12:02:50.558Z,127.00
2023-04-19T12:03:51.266Z,128.00
2023-04-19T12:04:52.095Z,139.00
2023-04-19T12:05:52.558Z,139.00
2023-04-19T12:06:53.021Z,133.00
2023-04-19T12:07:53.861Z,137.00
2023-04-19T12:08:54.695Z,136.00
2023-04-19T12:09:55.525Z,142.00
2023-04-19T12:10:56.338Z,147.00
2023-04-19T12:11:57.166Z,147.00
2023-04-19T12:12:58.010Z,144.00
2023-04-19T12:13:58.834Z,141.00
2023-04-19T12:14:59.647Z,122.00
2023-04-19T12:16:00.486Z,107.00
2023-04-19T12:17:01.384Z,106.00
2023-04-19T12:18:02.478Z,96.00
2023-04-19T12:19:02.833Z,94.00
2023-04-19T12:20:03.659Z,91.00
2023-04-19T12:21:04.460Z,85.00
2023-04-19T12:22:05.300Z,82.00
2023-04-19T12:23:06.129Z,82.00
2023-04-19T12:24:06.963Z,82.00
2023-04-19T12:25:07.770Z,82.00
2023-04-19T12:26:08.605Z,77.00
2023-04-19T12:27:09.424Z,81.00
2023-04-19T12:28:10.167Z,84.00
2023-04-19T12:29:11.029Z,90.00
2023-04-19T12:30:11.856Z,88.00
2023-04-19T12:31:12.681Z,92.00
2023-04-19T12:32:13.526Z,96.00
2023-04-19T12:33:14.377Z,100.00
2023-04-19T12:34:15.180Z,105.00
2023-04-19T12:35:16.129Z,109.00
2023-04-19T12:36:16.931Z,105.00
2023-04-19T12:37:17.745Z,102.00
2023-04-19T12:38:18.571Z,102.00
2023-04-19T12:39:19.414Z,99.00
2023-04-19T12:40:20.231Z,102.00
2023-04-19T12:41:21.054Z,104.00
2023-04-19T12:42:21.857Z,106.00
2023-04-19T12:43:22.695Z,114.00
2023-04-19T12:44:23.524Z,126.00
2023-04-19T12:45:24.399Z,129.00
2023-04-19T12:46:25.289Z,124.00
2023-04-19T12:47:26.139Z,130.00
2023-04-19T12:48:26.936Z,127.00
2023-04-19T12:49:27.761Z,126.00
2023-04-19T12:50:28.675Z,120.00
2023-04-19T12:51:29.434Z,114.00
2023-04-19T12:52:30.267Z,122.00
2023-04-19T12:53:31.098Z,124.00
2023-04-19T12:54:31.905Z,119.00
2023-04-19T12:55:32.732Z,115.00
2023-04-19T12:56:33.552Z,109.00
2023-04-19T12:57:34.374Z,103.00
2023-04-19T12:58:35.229Z,95.00
2023-04-19T12:59:36.041Z,93.00
2023-04-19T13:00:36.862Z,81.00
2023-04-19T13:01:37.701Z,76.00
2023-04-19T13:02:38.769Z,60.00
2023-04-19T13:03:39.317Z,75.00
2023-04-19T13:04:39.812Z,91.00
2023-04-19T13:05:40.679Z,133.00